Time;durP1;ratioP1;P1;durP2;ratioP2;P2;SDS_P1;SDS_P2;PMS_P1;PMS_P2;Temp;Humidity;BMP_temperature;BMP_pressure;BME280_temperature;BME280_humidity;BME280_pressure;Samples;Min_cycle;Max_cycle;Signal;HPM_P1;HPM_P2
2022/06/10 00:00:42;;;;;;;;;;;;;;;22.90;51.22;101394.28;4949011;28;4337;-63
2022/06/10 00:03:09;;;;;;;;;;;;;;;22.90;51.21;101388.53;4960436;28;5511;-63
2022/06/10 00:05:36;;;;;;;;;;;;;;;22.89;50.92;101392.81;4958880;28;4242;-62
2022/06/10 00:08:04;;;;;;;;;;;;;;;22.89;51.12;101394.97;4959273;28;4233;-63
2022/06/10 00:10:31;;;;;;;;;;;;;;;22.88;51.14;101397.09;4958796;28;6350;-63
2022/06/10 00:12:57;;;;;;;;;;;;;;;22.89;51.04;101394.97;4956432;28;4660;-63
2022/06/10 00:15:23;;;;;;;;;;;;;;;22.87;51.17;101392.72;4957166;28;4175;-63
2022/06/10 00:17:50;;;;;;;;;;;;;;;22.87;50.94;101401.38;4958624;28;4317;-63
2022/06/10 00:20:18;;;;;;;;;;;;;;;22.86;51.14;101399.91;4959713;28;4191;-62
2022/06/10 00:22:44;;;;;;;;;;;;;;;22.86;51.00;101399.91;4950606;28;4238;-63
2022/06/10 00:25:11;;;;;;;;;;;;;;;22.86;51.10;101405.69;4962599;28;4259;-62
2022/06/10 00:27:37;;;;;;;;;;;;;;;22.85;50.97;101404.19;4962135;28;4246;-62
2022/06/10 00:30:04;;;;;;;;;;;;;;;22.85;50.82;101401.28;4961935;28;4426;-63
2022/06/10 00:32:31;;;;;;;;;;;;;;;22.85;51.11;101409.22;4959511;28;4049;-63
2022/06/10 00:34:57;;;;;;;;;;;;;;;22.84;51.04;101420.03;4963327;28;4153;-64
2022/06/10 00:37:24;;;;;;;;;;;;;;;22.84;51.17;101425.03;4965127;28;4265;-63
2022/06/10 00:39:50;;;;;;;;;;;;;;;22.84;50.97;101419.25;4962921;28;5369;-63
2022/06/10 00:42:16;;;;;;;;;;;;;;;22.83;51.00;101430.06;4961571;28;4379;-63
2022/06/10 00:44:46;;;;;;;;;;;;;;;22.82;51.03;101425.72;4961357;28;5267;-62
2022/06/10 00:47:23;;;;;;;;;;;;;;;22.83;51.06;101432.97;4966921;28;5355;-63
2022/06/10 00:49:51;;;;;;;;;;;;;;;22.83;51.13;101429.34;4960333;28;4113;-63
2022/06/10 00:52:30;;;;;;;;;;;;;;;22.82;51.23;101433.63;4961646;28;4351;-63
2022/06/10 00:54:57;;;;;;;;;;;;;;;22.87;50.71;101436.03;4962870;28;4357;-63
2022/06/10 00:57:25;;;;;;;;;;;;;;;22.85;51.04;101444.59;4959470;28;4233;-63
2022/06/10 00:59:56;;;;;;;;;;;;;;;22.83;51.02;101446.66;4962221;28;4257;-64
2022/06/10 01:02:24;;;;;;;;;;;;;;;22.86;50.81;101443.22;4978859;28;5797;-63
2022/06/10 01:04:51;;;;;;;;;;;;;;;22.88;50.96;101454.09;4961094;28;4243;-63
2022/06/10 01:07:18;;;;;;;;;;;;;;;22.88;50.96;101460.63;4957917;28;4212;-63
2022/06/10 01:09:45;;;;;;;;;;;;;;;22.87;50.80;101459.13;4960992;28;4349;-63
2022/06/10 01:12:15;;;;;;;;;;;;;;;22.88;51.00;101465.66;4961848;28;4203;-62
2022/06/10 01:15:00;;;;;;;;;;;;;;;22.87;50.86;101464.91;4955690;28;4101;-63
2022/06/10 01:17:39;;;;;;;;;;;;;;;22.87;50.71;101467.06;4964559;28;5391;-62
2022/06/10 01:20:12;;;;;;;;;;;;;;;22.86;50.99;101454.00;4952294;28;4167;-62
2022/06/10 01:22:39;;;;;;;;;;;;;;;22.80;51.02;101461.00;4979280;28;4219;-62
2022/06/10 01:25:24;;;;;;;;;;;;;;;22.78;50.87;101466.69;4960776;28;4177;-62
2022/06/10 01:27:59;;;;;;;;;;;;;;;22.79;50.83;101464.53;4961737;28;4241;-63
2022/06/10 01:30:46;;;;;;;;;;;;;;;22.80;51.01;101475.44;4955413;28;4055;-63
2022/06/10 01:33:15;;;;;;;;;;;;;;;22.77;51.29;101468.09;4962909;28;4521;-62
2022/06/10 01:35:42;;;;;;;;;;;;;;;22.77;50.89;101478.91;4956663;28;4619;-62
2022/06/10 01:38:30;;;;;;;;;;;;;;;22.79;50.76;101470.31;4974599;28;4231;-62
2022/06/10 01:41:11;;;;;;;;;;;;;;;22.82;50.83;101469.03;4955424;28;5302;-63
2022/06/10 01:43:39;;;;;;;;;;;;;;;22.83;50.81;101479.16;4961356;28;4209;-63
2022/06/10 01:46:10;;;;;;;;;;;;;;;22.82;50.66;101474.78;4961823;28;4282;-63
2022/06/10 01:48:39;;;;;;;;;;;;;;;22.82;50.77;101474.78;4963248;28;4474;-62
2022/06/10 01:51:14;;;;;;;;;;;;;;;22.82;50.67;101477.69;4953886;28;4220;-63
2022/06/10 01:53:44;;;;;;;;;;;;;;;22.82;50.94;101483.47;4956250;28;4250;-63
2022/06/10 01:56:19;;;;;;;;;;;;;;;22.81;51.03;101490.63;4959508;28;4328;-63
2022/06/10 01:58:48;;;;;;;;;;;;;;;22.80;50.91;101489.88;4958425;28;5238;-62
2022/06/10 02:01:16;;;;;;;;;;;;;;;22.81;50.82;101496.38;4957247;28;4196;-62
2022/06/10 02:03:53;;;;;;;;;;;;;;;22.76;51.08;101495.47;4960190;28;4246;-62
2022/06/10 02:06:20;;;;;;;;;;;;;;;22.74;51.01;101494.63;4979079;28;4288;-63
2022/06/10 02:08:51;;;;;;;;;;;;;;;22.76;50.88;101500.50;4954681;28;4283;-63
2022/06/10 02:11:19;;;;;;;;;;;;;;;22.79;51.01;101507.84;4963536;28;4193;-63
2022/06/10 02:14:04;;;;;;;;;;;;;;;22.79;50.84;101514.38;4959958;28;4386;-62
2022/06/10 02:16:31;;;;;;;;;;;;;;;22.79;50.82;101507.84;4967195;28;4148;-63
2022/06/10 02:19:06;;;;;;;;;;;;;;;22.80;50.62;101512.25;4959127;28;4337;-62
2022/06/10 02:21:46;;;;;;;;;;;;;;;22.79;50.66;101517.28;4956965;28;4419;-62
2022/06/10 02:24:21;;;;;;;;;;;;;;;22.78;50.90;101510.00;4963184;28;4177;-62
2022/06/10 02:26:47;;;;;;;;;;;;;;;22.78;50.81;101517.91;4958767;28;4242;-63
2022/06/10 02:29:17;;;;;;;;;;;;;;;22.78;50.85;101520.81;4962707;28;4280;-62
2022/06/10 02:31:44;;;;;;;;;;;;;;;22.78;50.58;101520.81;4956173;28;4032;-63
2022/06/10 02:34:12;;;;;;;;;;;;;;;22.77;50.71;101519.31;4955802;28;5320;-63
2022/06/10 02:36:42;;;;;;;;;;;;;;;22.77;50.66;101525.09;4959811;28;4006;-62
2022/06/10 02:39:19;;;;;;;;;;;;;;;22.76;50.66;101515.66;4978646;28;5250;-63
2022/06/10 02:42:04;;;;;;;;;;;;;;;22.76;50.97;101523.59;4956155;28;4280;-63
2022/06/10 02:44:35;;;;;;;;;;;;;;;22.75;50.65;101531.50;4964763;28;4061;-63
2022/06/10 02:47:20;;;;;;;;;;;;;;;22.75;50.80;101534.41;4963880;28;4289;-63
2022/06/10 02:49:46;;;;;;;;;;;;;;;22.74;50.83;101532.16;4960191;28;4262;-63
2022/06/10 02:52:13;;;;;;;;;;;;;;;22.74;50.75;101537.94;4960835;28;5712;-63
2022/06/10 02:54:39;;;;;;;;;;;;;;;22.73;50.83;101542.22;4957972;28;4003;-63
2022/06/10 02:57:10;;;;;;;;;;;;;;;22.72;50.81;101541.47;4961228;28;4093;-62
2022/06/10 03:02:23;;;;;;;;;;;;;;;22.73;50.95;101545.84;4954613;28;5357;-63
2022/06/10 03:05:02;;;;;;;;;;;;;;;22.73;50.72;101553.78;4957558;28;4352;-63
2022/06/10 03:07:40;;;;;;;;;;;;;;;22.73;50.85;101553.78;4957723;28;4600;-63
2022/06/10 03:10:17;;;;;;;;;;;;;;;22.73;50.75;101559.56;4960651;28;4223;-63
2022/06/10 03:13:00;;;;;;;;;;;;;;;22.72;50.85;101558.03;4955856;28;4961;-63
2022/06/10 03:15:42;;;;;;;;;;;;;;;22.71;50.88;101568.84;4958418;28;4131;-63
2022/06/10 03:18:15;;;;;;;;;;;;;;;22.72;50.81;101581.13;4950629;28;4553;-63
2022/06/10 03:20:44;;;;;;;;;;;;;;;22.72;50.90;101581.13;4965736;28;4213;-63
2022/06/10 03:23:18;;;;;;;;;;;;;;;22.71;50.78;101586.16;4956430;28;5382;-63
2022/06/10 03:25:51;;;;;;;;;;;;;;;22.71;50.51;101596.97;4962512;28;5690;-63
2022/06/10 03:28:36;;;;;;;;;;;;;;;22.72;50.90;101592.69;4973395;28;4304;-63
2022/06/10 03:31:11;;;;;;;;;;;;;;;22.71;50.72;101594.09;4957067;28;4553;-63
2022/06/10 03:33:40;;;;;;;;;;;;;;;22.71;50.62;101602.75;4959108;28;5272;-62
2022/06/10 03:36:13;;;;;;;;;;;;;;;22.68;50.54;101604.06;4953393;28;4550;-62
2022/06/10 03:38:41;;;;;;;;;;;;;;;22.67;50.49;101603.28;4955874;28;4234;-62
2022/06/10 03:41:07;;;;;;;;;;;;;;;22.68;50.44;101615.59;4956401;28;4133;-62
2022/06/10 03:43:34;;;;;;;;;;;;;;;22.68;50.50;101615.59;4961362;28;4057;-62
2022/06/10 03:46:02;;;;;;;;;;;;;;;22.67;50.58;101614.84;4968753;28;4137;-62
2022/06/10 03:48:29;;;;;;;;;;;;;;;22.69;50.52;101619.97;4957783;28;5342;-62
2022/06/10 03:50:55;;;;;;;;;;;;;;;22.68;50.78;101630.03;4960797;28;4283;-62
2022/06/10 03:53:22;;;;;;;;;;;;;;;22.67;50.66;101626.38;4970720;28;4112;-62
2022/06/10 03:55:48;;;;;;;;;;;;;;;22.66;50.58;101629.94;4962244;28;4226;-62
2022/06/10 03:58:14;;;;;;;;;;;;;;;22.65;50.63;101631.31;4962830;28;4290;-62
2022/06/10 04:00:41;;;;;;;;;;;;;;;22.66;50.72;101624.16;4960317;28;4262;-62
2022/06/10 04:03:07;;;;;;;;;;;;;;;22.67;50.40;101632.16;4960576;28;4210;-62
2022/06/10 04:05:34;;;;;;;;;;;;;;;22.65;50.47;101628.44;4959765;28;4287;-62
2022/06/10 04:08:20;;;;;;;;;;;;;;;22.65;50.63;101628.44;4961759;28;5399;-62
2022/06/10 04:10:46;;;;;;;;;;;;;;;22.64;50.70;101632.72;4955864;28;4227;-62
2022/06/10 04:13:13;;;;;;;;;;;;;;;22.65;50.63;101645.75;4958314;28;4169;-62
2022/06/10 04:15:39;;;;;;;;;;;;;;;22.64;50.48;101641.38;4961661;28;4165;-62
2022/06/10 04:18:06;;;;;;;;;;;;;;;22.63;50.76;101640.66;4960046;28;4056;-62
2022/06/10 04:20:34;;;;;;;;;;;;;;;22.63;50.49;101648.53;4959541;28;5313;-62
2022/06/10 04:23:01;;;;;;;;;;;;;;;22.62;50.47;101647.78;4962579;28;4183;-63
2022/06/10 04:25:27;;;;;;;;;;;;;;;22.63;50.75;101654.31;4956079;28;4243;-62
2022/06/10 04:27:54;;;;;;;;;;;;;;;22.62;50.65;101659.34;4963539;28;4468;-62
2022/06/10 04:30:22;;;;;;;;;;;;;;;22.62;50.73;101656.47;4955586;28;4503;-62
2022/06/10 04:32:48;;;;;;;;;;;;;;;22.62;50.75;101655.72;4954218;28;4445;-62
2022/06/10 04:35:14;;;;;;;;;;;;;;;22.64;50.73;101652.94;4961787;28;4227;-62
2022/06/10 04:37:41;;;;;;;;;;;;;;;22.63;50.64;101657.97;4963637;28;4192;-62
2022/06/10 04:40:08;;;;;;;;;;;;;;;22.64;50.71;101655.81;4958786;28;4163;-62
2022/06/10 04:42:34;;;;;;;;;;;;;;;22.62;50.81;101652.81;4961326;28;4387;-62
2022/06/10 04:45:00;;;;;;;;;;;;;;;22.62;50.77;101665.13;4960229;28;4155;-62
2022/06/10 04:47:27;;;;;;;;;;;;;;;22.63;50.71;101663.75;4959215;28;4094;-62
2022/06/10 04:49:59;;;;;;;;;;;;;;;22.62;50.42;101670.91;4957335;28;4273;-62
2022/06/10 04:52:27;;;;;;;;;;;;;;;22.63;50.52;101671.63;4956841;28;4231;-62
2022/06/10 04:54:54;;;;;;;;;;;;;;;22.63;50.72;101671.63;4955430;28;4577;-62
2022/06/10 04:57:20;;;;;;;;;;;;;;;22.62;50.70;101670.16;4959792;28;4270;-62
2022/06/10 04:59:47;;;;;;;;;;;;;;;22.63;50.84;101677.41;4956291;28;4305;-62
2022/06/10 05:02:13;;;;;;;;;;;;;;;22.62;50.90;101681.69;4958108;28;4271;-62
2022/06/10 05:04:39;;;;;;;;;;;;;;;22.62;50.78;101682.44;4958201;28;4330;-62
2022/06/10 05:07:06;;;;;;;;;;;;;;;22.61;50.76;101686.72;4954266;28;4177;-62
2022/06/10 05:09:32;;;;;;;;;;;;;;;22.61;50.54;101692.50;4960383;28;4238;-62
2022/06/10 05:11:58;;;;;;;;;;;;;;;22.61;50.91;101692.50;4960109;28;5309;-62
2022/06/10 05:14:25;;;;;;;;;;;;;;;22.59;50.91;101696.03;4957676;28;4127;-62
2022/06/10 05:16:51;;;;;;;;;;;;;;;22.60;50.57;101702.53;4962372;28;4098;-62
2022/06/10 05:19:18;;;;;;;;;;;;;;;22.57;50.89;101701.69;4958143;28;4170;-62
2022/06/10 05:21:44;;;;;;;;;;;;;;;22.58;50.80;101694.50;4959598;28;4194;-62
2022/06/10 05:24:10;;;;;;;;;;;;;;;22.59;50.62;101706.84;4958528;28;5542;-61
2022/06/10 05:26:37;;;;;;;;;;;;;;;21.79;51.54;101704.81;4956636;28;4137;-63
2022/06/10 05:29:03;;;;;;;;;;;;;;;21.57;51.85;101701.44;4952773;28;4224;-69
2022/06/10 05:31:29;;;;;;;;;;;;;;;21.30;52.21;101708.59;4952813;28;4207;-71
2022/06/10 05:36:41;;;;;;;;;;;;;;;21.53;51.66;101707.72;4963113;28;4457;-74
2022/06/10 05:39:07;;;;;;;;;;;;;;;21.46;51.88;101708.78;4963663;28;4359;-76
2022/06/10 05:44:19;;;;;;;;;;;;;;;21.37;51.99;101715.44;4957201;28;4200;-67
2022/06/10 05:46:45;;;;;;;;;;;;;;;21.01;52.22;101712.00;4962989;28;4368;-68
2022/06/10 05:49:11;;;;;;;;;;;;;;;20.74;52.77;101713.34;4959295;28;5261;-64
2022/06/10 05:51:38;;;;;;;;;;;;;;;20.76;52.96;101722.13;4958791;28;4314;-67
2022/06/10 05:54:04;;;;;;;;;;;;;;;20.75;52.68;101720.59;4952924;28;4107;-69
2022/06/10 05:56:30;;;;;;;;;;;;;;;20.71;53.34;101721.13;4958500;28;4204;-72
2022/06/10 05:58:57;;;;;;;;;;;;;;;20.56;53.71;101715.13;4962988;28;4296;-72
2022/06/10 06:01:23;;;;;;;;;;;;;;;20.54;53.71;101723.66;4966010;28;4085;-72
2022/06/10 06:03:50;;;;;;;;;;;;;;;20.46;53.91;101721.78;4960952;28;5849;-67
2022/06/10 06:06:18;;;;;;;;;;;;;;;20.33;54.09;101721.69;4964355;28;4114;-67
2022/06/10 06:08:46;;;;;;;;;;;;;;;20.43;54.03;101731.69;4958306;28;4260;-67
2022/06/10 06:11:12;;;;;;;;;;;;;;;20.27;54.33;101722.06;4965613;28;4178;-67
2022/06/10 06:13:39;;;;;;;;;;;;;;;20.50;53.67;101724.16;4965004;28;4323;-67
2022/06/10 06:16:06;;;;;;;;;;;;;;;20.59;53.97;101719.66;4966223;28;5367;-67
2022/06/10 06:18:32;;;;;;;;;;;;;;;20.25;53.90;101724.84;4964984;28;4177;-66
2022/06/10 06:20:58;;;;;;;;;;;;;;;20.57;54.29;101726.06;4959490;28;4230;-65
2022/06/10 06:23:25;;;;;;;;;;;;;;;20.95;53.36;101726.06;4965229;28;4226;-65
2022/06/10 06:25:51;;;;;;;;;;;;;;;20.81;53.33;101732.47;4963827;28;4206;-65
2022/06/10 06:28:17;;;;;;;;;;;;;;;21.01;52.45;101732.19;4958643;28;4218;-65
2022/06/10 06:30:44;;;;;;;;;;;;;;;21.11;52.39;101735.63;4962425;28;5415;-64
2022/06/10 06:33:12;;;;;;;;;;;;;;;21.17;52.41;101730.22;4957869;28;5513;-63
2022/06/10 06:36:14;;;;;;;;;;;;;;;20.94;53.48;101731.06;4973146;28;4050;-63
2022/06/10 06:38:57;;;;;;;;;;;;;;;20.95;52.61;101731.81;4959466;28;4010;-64
2022/06/10 06:41:35;;;;;;;;;;;;;;;21.21;52.40;101736.22;4975427;28;5210;-64
2022/06/10 06:44:04;;;;;;;;;;;;;;;21.32;51.74;101723.84;4964957;28;5602;-66
2022/06/10 06:46:32;;;;;;;;;;;;;;;21.20;51.74;101728.94;4962229;28;4233;-64
2022/06/10 06:48:58;;;;;;;;;;;;;;;21.11;51.88;101733.47;4953148;28;5321;-64
2022/06/10 06:51:25;;;;;;;;;;;;;;;20.50;52.61;101739.31;4958403;28;4422;-64
2022/06/10 06:53:51;;;;;;;;;;;;;;;21.01;52.13;101740.81;4964300;28;4096;-67
2022/06/10 06:56:17;;;;;;;;;;;;;;;20.87;52.18;101744.34;4964178;28;5019;-68
2022/06/10 06:58:44;;;;;;;;;;;;;;;20.69;51.72;101740.41;4962155;28;4294;-67
2022/06/10 07:01:10;;;;;;;;;;;;;;;21.07;51.62;101744.03;4963417;28;4224;-70
2022/06/10 07:03:37;;;;;;;;;;;;;;;20.66;51.54;101744.53;4967361;28;4262;-72
2022/06/10 07:06:03;;;;;;;;;;;;;;;20.92;50.86;101740.34;4966774;28;5436;-68
2022/06/10 07:08:32;;;;;;;;;;;;;;;20.96;50.63;101741.94;4965722;28;4300;-71
2022/06/10 07:10:59;;;;;;;;;;;;;;;21.27;50.01;101750.19;4957454;28;5309;-71
2022/06/10 07:13:25;;;;;;;;;;;;;;;21.09;49.65;101747.03;4964159;28;5031;-72
2022/06/10 07:15:52;;;;;;;;;;;;;;;21.17;49.90;101750.38;4960877;28;4267;-66
2022/06/10 07:18:19;;;;;;;;;;;;;;;21.26;49.38;101752.34;4960553;28;4146;-62
2022/06/10 07:20:45;;;;;;;;;;;;;;;19.68;52.37;101747.91;4961788;28;4304;-64
2022/06/10 07:23:11;;;;;;;;;;;;;;;19.67;51.77;101757.88;4961631;28;4204;-62
2022/06/10 07:25:38;;;;;;;;;;;;;;;20.00;52.37;101754.97;4959343;28;4276;-66
2022/06/10 07:28:04;;;;;;;;;;;;;;;20.70;50.61;101756.28;4962141;28;4258;-62
2022/06/10 07:30:31;;;;;;;;;;;;;;;21.04;49.64;101762.56;4958964;28;4287;-66
2022/06/10 07:32:58;;;;;;;;;;;;;;;21.23;49.65;101755.72;4963149;28;4107;-65
2022/06/10 07:35:24;;;;;;;;;;;;;;;21.37;49.51;101759.41;4954319;28;4091;-65
2022/06/10 07:37:50;;;;;;;;;;;;;;;21.46;49.78;101763.53;4958915;28;4185;-65
2022/06/10 07:43:23;;;;;;;;;;;;;;;21.91;50.25;101763.13;4955337;28;4528;-64
2022/06/10 07:45:49;;;;;;;;;;;;;;;22.05;50.43;101754.50;4960533;28;4610;-67
2022/06/10 07:48:16;;;;;;;;;;;;;;;22.10;50.36;101751.16;4967608;28;4090;-66
2022/06/10 07:50:43;;;;;;;;;;;;;;;22.16;50.06;101760.16;4965678;28;4271;-66
2022/06/10 07:53:09;;;;;;;;;;;;;;;22.25;49.88;101761.38;4966573;28;4534;-69
2022/06/10 07:55:36;;;;;;;;;;;;;;;22.30;49.64;101762.34;4965208;28;5329;-64
2022/06/10 07:58:08;;;;;;;;;;;;;;;22.37;49.68;101761.25;4966567;28;4295;-63
2022/06/10 08:00:34;;;;;;;;;;;;;;;22.45;49.35;101753.03;4965689;28;4203;-61
2022/06/10 08:03:01;;;;;;;;;;;;;;;22.48;48.79;101757.50;4963443;28;5461;-62
2022/06/10 08:05:27;;;;;;;;;;;;;;;22.53;48.92;101761.34;4968828;28;4275;-62
2022/06/10 08:07:54;;;;;;;;;;;;;;;22.56;48.71;101751.41;4966042;28;4283;-61
2022/06/10 08:10:29;;;;;;;;;;;;;;;22.57;48.42;101753.66;4959954;28;4236;-64
2022/06/10 08:12:55;;;;;;;;;;;;;;;22.61;48.15;101752.34;4961862;28;4182;-62
2022/06/10 08:15:22;;;;;;;;;;;;;;;22.67;48.27;101750.53;4963978;28;4321;-62
2022/06/10 08:17:48;;;;;;;;;;;;;;;22.71;48.29;101752.88;4964804;28;4723;-62
2022/06/10 08:20:16;;;;;;;;;;;;;;;22.39;47.98;101764.25;4954165;28;4230;-66
2022/06/10 08:22:43;;;;;;;;;;;;;;;22.32;47.28;101756.66;4954039;28;4930;-72
2022/06/10 08:25:09;;;;;;;;;;;;;;;22.36;47.24;101757.63;4952874;28;4415;-61
2022/06/10 08:27:36;;;;;;;;;;;;;;;22.49;46.96;101759.00;4960557;28;4595;-60
2022/06/10 08:30:03;;;;;;;;;;;;;;;22.55;47.45;101752.81;4962963;28;5304;-62
2022/06/10 08:32:29;;;;;;;;;;;;;;;22.61;47.11;101756.00;4959989;28;4071;-61
2022/06/10 08:34:56;;;;;;;;;;;;;;;22.68;47.28;101762.84;4963877;28;4341;-61
2022/06/10 08:37:22;;;;;;;;;;;;;;;22.68;46.80;101759.97;4963145;28;4253;-62
2022/06/10 08:39:48;;;;;;;;;;;;;;;22.71;46.38;101758.66;4957927;28;4290;-63
2022/06/10 08:42:34;;;;;;;;;;;;;;;22.71;46.01;101761.56;4961471;28;5209;-61
2022/06/10 08:45:12;;;;;;;;;;;;;;;22.72;46.01;101751.47;4963654;28;4187;-63
2022/06/10 08:47:44;;;;;;;;;;;;;;;22.77;45.77;101750.31;4966247;28;4250;-61
2022/06/10 08:50:22;;;;;;;;;;;;;;;22.78;45.76;101757.56;4966663;28;4053;-61
2022/06/10 08:52:58;;;;;;;;;;;;;;;22.80;45.49;101754.78;4933099;28;4091;-63
2022/06/10 08:55:43;;;;;;;;;;;;;;;22.83;46.04;101765.06;4963252;28;4171;-64
2022/06/10 08:58:14;;;;;;;;;;;;;;;22.91;45.42;101748.13;4967965;28;4864;-65
2022/06/10 09:00:41;;;;;;;;;;;;;;;22.90;45.82;101754.56;4959346;28;4263;-64
2022/06/10 09:03:34;;;;;;;;;;;;;;;22.94;45.35;101755.50;4965779;28;4211;-64
2022/06/10 09:06:04;;;;;;;;;;;;;;;22.84;45.82;101763.66;4967631;28;5422;-61
2022/06/10 09:08:31;;;;;;;;;;;;;;;22.80;45.69;101761.31;4960340;28;4507;-62
2022/06/10 09:11:04;;;;;;;;;;;;;;;22.81;45.36;101762.06;4962534;28;5275;-63
2022/06/10 09:13:34;;;;;;;;;;;;;;;22.80;44.88;101760.56;4981916;28;4187;-64
2022/06/10 09:16:14;;;;;;;;;;;;;;;22.77;44.63;101762.59;4963324;28;4045;-63
2022/06/10 09:18:50;;;;;;;;;;;;;;;22.79;44.61;101754.06;4961249;28;4165;-64
2022/06/10 09:21:20;;;;;;;;;;;;;;;22.79;44.87;101754.06;4968765;28;4161;-61
2022/06/10 09:23:47;;;;;;;;;;;;;;;22.83;45.22;101752.75;4958435;28;4317;-60
2022/06/10 09:26:15;;;;;;;;;;;;;;;22.83;44.55;101750.59;4965046;28;4259;-61
2022/06/10 09:28:45;;;;;;;;;;;;;;;22.83;44.35;101753.50;4959305;28;4179;-60
2022/06/10 09:31:23;;;;;;;;;;;;;;;22.86;44.49;101752.22;4967912;28;4592;-61
2022/06/10 09:34:01;;;;;;;;;;;;;;;22.74;44.44;101755.22;4962226;28;5029;-62
2022/06/10 09:36:34;;;;;;;;;;;;;;;22.66;44.96;101751.19;4959711;28;5650;-62
2022/06/10 09:39:04;;;;;;;;;;;;;;;22.63;44.96;101758.25;4956050;28;4579;-61
2022/06/10 09:41:41;;;;;;;;;;;;;;;22.71;45.18;101752.88;4958816;28;4155;-60
2022/06/10 09:44:14;;;;;;;;;;;;;;;22.83;45.15;101746.97;4961621;28;4220;-60
2022/06/10 09:46:45;;;;;;;;;;;;;;;22.91;45.27;101758.94;4960125;28;4319;-61
2022/06/10 09:49:19;;;;;;;;;;;;;;;22.95;44.96;101750.47;4960581;28;4232;-61
2022/06/10 09:51:52;;;;;;;;;;;;;;;22.95;45.00;101754.13;4961505;28;4184;-60
2022/06/10 09:54:22;;;;;;;;;;;;;;;22.97;44.71;101754.19;4956813;28;4234;-60
2022/06/10 09:56:54;;;;;;;;;;;;;;;23.00;44.91;101761.63;4964393;28;4219;-61
2022/06/10 09:59:21;;;;;;;;;;;;;;;23.01;44.60;101750.81;4964184;28;4493;-60
2022/06/10 10:01:54;;;;;;;;;;;;;;;23.02;43.98;101751.53;4964197;28;4234;-61
2022/06/10 10:04:22;;;;;;;;;;;;;;;23.01;44.00;101742.13;4965702;28;4343;-61
2022/06/10 10:07:10;;;;;;;;;;;;;;;22.92;44.11;101752.50;4966523;28;6386;-63
2022/06/10 10:09:41;;;;;;;;;;;;;;;22.83;44.42;101747.72;4953940;28;4149;-62
2022/06/10 10:12:08;;;;;;;;;;;;;;;22.76;44.46;101745.94;4954870;28;5643;-62
2022/06/10 10:14:50;;;;;;;;;;;;;;;22.73;44.06;101741.44;4963104;28;4293;-63
2022/06/10 10:17:23;;;;;;;;;;;;;;;22.82;45.46;101746.25;4966499;28;5296;-62
2022/06/10 10:19:52;;;;;;;;;;;;;;;22.94;45.25;101751.88;4960818;28;4426;-69
2022/06/10 10:22:27;;;;;;;;;;;;;;;23.02;44.66;101746.53;4977791;28;5185;-69
2022/06/10 10:24:54;;;;;;;;;;;;;;;23.06;44.48;101740.19;4962997;28;4250;-65
2022/06/10 10:27:26;;;;;;;;;;;;;;;23.09;45.00;101744.66;4959032;28;5406;-64
2022/06/10 10:29:54;;;;;;;;;;;;;;;23.10;44.44;101737.50;4960851;28;4227;-67
2022/06/10 10:32:21;;;;;;;;;;;;;;;23.07;44.16;101735.94;4955450;28;4309;-68
2022/06/10 10:34:50;;;;;;;;;;;;;;;23.06;44.38;101738.06;4960388;28;4110;-65
2022/06/10 10:37:22;;;;;;;;;;;;;;;22.94;44.40;101741.06;4958562;28;4103;-64
2022/06/10 10:39:49;;;;;;;;;;;;;;;22.96;44.15;101746.19;4955986;28;4273;-64
2022/06/10 10:42:23;;;;;;;;;;;;;;;23.00;44.27;101735.63;4961851;28;4184;-64
2022/06/10 10:44:51;;;;;;;;;;;;;;;22.91;44.04;101742.38;4956247;28;4359;-66
2022/06/10 10:47:19;;;;;;;;;;;;;;;22.79;44.27;101741.75;4956664;28;4207;-67
2022/06/10 10:49:50;;;;;;;;;;;;;;;22.73;44.20;101738.56;4962094;28;4241;-67
2022/06/10 10:52:26;;;;;;;;;;;;;;;22.76;44.48;101725.72;4965751;28;4259;-67
2022/06/10 10:54:54;;;;;;;;;;;;;;;22.75;44.04;101735.78;4964465;28;5530;-67
2022/06/10 10:57:25;;;;;;;;;;;;;;;22.72;44.68;101737.81;4962598;28;4067;-74
2022/06/10 11:00:18;;;;;;;;;;;;;;;22.71;44.59;101735.56;4963806;28;5354;-66
2022/06/10 11:02:47;;;;;;;;;;;;;;;22.72;44.59;101731.28;4964296;28;5131;-66
2022/06/10 11:05:31;;;;;;;;;;;;;;;22.73;44.50;101732.78;4963143;28;4175;-66
2022/06/10 11:08:17;;;;;;;;;;;;;;;22.73;44.75;101732.78;4959829;28;4319;-66
2022/06/10 11:11:02;;;;;;;;;;;;;;;22.70;44.61;101739.81;4952573;28;4271;-68
2022/06/10 11:13:36;;;;;;;;;;;;;;;22.75;44.86;101732.88;4955921;28;6178;-68
2022/06/10 11:16:16;;;;;;;;;;;;;;;22.84;44.69;101723.25;4942655;28;5138;-63
2022/06/10 11:18:43;;;;;;;;;;;;;;;22.72;39.53;101717.59;4936475;28;6614;-62
2022/06/10 11:21:09;;;;;;;;;;;;;;;22.50;38.87;101728.75;4964701;28;4668;-62
2022/06/10 11:23:35;;;;;;;;;;;;;;;22.83;40.21;101733.28;4964488;28;4957;-68
2022/06/10 11:26:06;;;;;;;;;;;;;;;23.06;40.29;101722.88;4960751;28;4207;-63
2022/06/10 11:28:35;;;;;;;;;;;;;;;23.12;41.46;101720.28;4963271;28;4289;-64
2022/06/10 11:31:01;;;;;;;;;;;;;;;23.19;41.71;101730.75;4961723;28;4379;-67
2022/06/10 11:33:29;;;;;;;;;;;;;;;23.18;41.33;101723.44;4964261;28;4257;-68
2022/06/10 11:36:12;;;;;;;;;;;;;;;23.06;41.79;101719.97;4957926;28;5734;-68
2022/06/10 11:38:47;;;;;;;;;;;;;;;23.06;42.19;101720.72;4963418;28;4503;-68
2022/06/10 11:41:25;;;;;;;;;;;;;;;23.08;41.99;101706.38;4963259;28;4639;-67
2022/06/10 11:43:55;;;;;;;;;;;;;;;23.13;42.66;101710.22;4963360;28;4571;-65
2022/06/10 11:46:25;;;;;;;;;;;;;;;23.24;42.97;101699.91;4977747;28;4257;-67
2022/06/10 11:48:54;;;;;;;;;;;;;;;23.24;42.30;101702.78;4959680;28;4144;-66
2022/06/10 11:51:33;;;;;;;;;;;;;;;23.24;42.13;101708.56;4964715;28;4021;-66
2022/06/10 11:54:03;;;;;;;;;;;;;;;23.24;41.99;101702.78;4958602;28;4400;-69
2022/06/10 11:59:59;;;;;;;;;;;;;;;23.27;42.59;101696.44;4962088;28;5432;-65
2022/06/10 12:02:44;;;;;;;;;;;;;;;23.34;43.32;101695.34;4925366;29;4171;-68
2022/06/10 12:05:15;;;;;;;;;;;;;;;23.42;42.63;101689.19;4963769;28;4191;-65
2022/06/10 12:07:47;;;;;;;;;;;;;;;23.34;42.03;101689.56;4956161;28;4205;-64
2022/06/10 12:10:15;;;;;;;;;;;;;;;23.33;42.12;101682.28;4952608;28;4969;-64
2022/06/10 12:12:41;;;;;;;;;;;;;;;23.33;42.09;101681.53;4965546;28;4192;-63
2022/06/10 12:15:19;;;;;;;;;;;;;;;23.36;42.15;101680.22;4962582;28;4701;-69
2022/06/10 12:17:45;;;;;;;;;;;;;;;23.32;42.15;101686.59;4956653;28;4176;-67
2022/06/10 12:20:16;;;;;;;;;;;;;;;23.38;43.01;101677.44;4958688;28;4220;-67
2022/06/10 12:22:42;;;;;;;;;;;;;;;23.38;43.10;101683.22;4963481;28;4045;-65
2022/06/10 12:25:15;;;;;;;;;;;;;;;23.41;42.78;101679.78;4959415;28;4182;-66
2022/06/10 12:27:48;;;;;;;;;;;;;;;23.42;42.58;101671.84;4960684;28;4183;-66
2022/06/10 12:30:16;;;;;;;;;;;;;;;23.40;42.45;101675.38;4966432;28;4031;-63
2022/06/10 12:32:49;;;;;;;;;;;;;;;23.48;43.38;101662.72;4979040;28;4235;-64
2022/06/10 12:35:17;;;;;;;;;;;;;;;23.69;43.25;101665.16;4964328;28;4252;-64
2022/06/10 12:37:57;;;;;;;;;;;;;;;23.55;42.66;101670.28;4960840;28;4142;-65
2022/06/10 12:40:27;;;;;;;;;;;;;;;23.36;42.51;101672.31;4952214;28;5033;-67
2022/06/10 12:42:58;;;;;;;;;;;;;;;23.28;42.65;101663.25;4957899;28;4387;-66
2022/06/10 12:45:39;;;;;;;;;;;;;;;23.26;43.29;101671.84;4965145;28;4286;-66
2022/06/10 12:48:11;;;;;;;;;;;;;;;23.24;43.25;101665.97;4960254;28;5334;-66
2022/06/10 12:50:46;;;;;;;;;;;;;;;23.22;43.59;101665.88;4955996;28;4186;-66
2022/06/10 12:53:16;;;;;;;;;;;;;;;23.20;43.56;101668.66;4960430;28;4201;-65
2022/06/10 12:55:47;;;;;;;;;;;;;;;23.19;43.58;101673.69;4977351;28;4258;-65
2022/06/10 12:58:32;;;;;;;;;;;;;;;23.18;43.44;101666.44;4960402;28;5609;-65
2022/06/10 13:01:11;;;;;;;;;;;;;;;23.17;43.41;101656.25;4962572;28;4183;-65
2022/06/10 13:03:39;;;;;;;;;;;;;;;23.19;43.35;101649.84;4960639;28;4279;-63
2022/06/10 13:06:25;;;;;;;;;;;;;;;23.20;43.48;101657.09;4966208;28;4276;-66
2022/06/10 13:09:18;;;;;;;;;;;;;;;23.19;43.60;101655.63;4961797;28;4518;-67
2022/06/10 13:11:57;;;;;;;;;;;;;;;23.18;43.65;101651.22;4958367;28;4142;-72
2022/06/10 13:14:29;;;;;;;;;;;;;;;23.17;43.71;101664.19;4966473;28;4202;-73
2022/06/10 13:16:58;;;;;;;;;;;;;;;23.15;43.77;101658.31;4969262;28;4348;-72
2022/06/10 13:19:29;;;;;;;;;;;;;;;23.15;44.02;101655.41;4960154;28;5234;-72